sensor_id;sensor_type;location;lat;lon;timestamp;temperature;humidity
4699;DHT22;33708;49.466;11.176;2023-03-14T00:01:12;9.90;99.90
4699;DHT22;33708;49.466;11.176;2023-03-14T00:03:38;9.90;99.90
4699;DHT22;33708;49.466;11.176;2023-03-14T00:06:05;9.70;99.90
4699;DHT22;33708;49.466;11.176;2023-03-14T00:08:31;9.80;99.90
4699;DHT22;33708;49.466;11.176;2023-03-14T00:10:56;9.80;99.90
4699;DHT22;33708;49.466;11.176;2023-03-14T00:13:24;9.80;99.90
4699;DHT22;33708;49.466;11.176;2023-03-14T00:15:49;9.80;99.90
4699;DHT22;33708;49.466;11.176;2023-03-14T00:18:15;9.70;99.90
4699;DHT22;33708;49.466;11.176;2023-03-14T00:20:40;9.70;99.90
4699;DHT22;33708;49.466;11.176;2023-03-14T00:23:06;9.80;99.90
4699;DHT22;33708;49.466;11.176;2023-03-14T00:25:32;9.80;99.90
4699;DHT22;33708;49.466;11.176;2023-03-14T00:27:57;9.80;99.90
4699;DHT22;33708;49.466;11.176;2023-03-14T00:30:23;9.70;99.90
4699;DHT22;33708;49.466;11.176;2023-03-14T00:32:48;9.90;99.90
4699;DHT22;33708;49.466;11.176;2023-03-14T00:35:15;9.80;99.90
4699;DHT22;33708;49.466;11.176;2023-03-14T00:37:41;9.90;99.90
4699;DHT22;33708;49.466;11.176;2023-03-14T00:40:07;10.00;99.90
4699;DHT22;33708;49.466;11.176;2023-03-14T00:42:33;9.90;99.90
4699;DHT22;33708;49.466;11.176;2023-03-14T00:44:59;9.80;99.90
4699;DHT22;33708;49.466;11.176;2023-03-14T00:47:25;10.00;99.90
4699;DHT22;33708;49.466;11.176;2023-03-14T00:49:50;9.90;99.90
4699;DHT22;33708;49.466;11.176;2023-03-14T00:52:16;9.80;99.90
4699;DHT22;33708;49.466;11.176;2023-03-14T00:54:41;9.90;99.90
4699;DHT22;33708;49.466;11.176;2023-03-14T00:57:07;9.90;99.90
4699;DHT22;33708;49.466;11.176;2023-03-14T00:59:33;10.00;99.90
4699;DHT22;33708;49.466;11.176;2023-03-14T01:01:59;10.00;99.90
4699;DHT22;33708;49.466;11.176;2023-03-14T01:04:24;10.10;99.90
4699;DHT22;33708;49.466;11.176;2023-03-14T01:06:50;10.10;99.90
4699;DHT22;33708;49.466;11.176;2023-03-14T01:09:15;10.20;99.90
4699;DHT22;33708;49.466;11.176;2023-03-14T01:11:43;10.30;99.90
4699;DHT22;33708;49.466;11.176;2023-03-14T01:14:12;10.10;99.90
4699;DHT22;33708;49.466;11.176;2023-03-14T01:16:38;10.40;99.90
4699;DHT22;33708;49.466;11.176;2023-03-14T01:19:03;10.10;99.90
4699;DHT22;33708;49.466;11.176;2023-03-14T01:21:32;10.30;99.90
4699;DHT22;33708;49.466;11.176;2023-03-14T01:23:59;10.30;99.90
4699;DHT22;33708;49.466;11.176;2023-03-14T01:26:27;10.40;99.90
4699;DHT22;33708;49.466;11.176;2023-03-14T01:28:55;10.50;99.90
4699;DHT22;33708;49.466;11.176;2023-03-14T01:31:21;10.60;99.90
4699;DHT22;33708;49.466;11.176;2023-03-14T01:33:46;10.60;99.90
4699;DHT22;33708;49.466;11.176;2023-03-14T01:36:12;10.60;99.90
4699;DHT22;33708;49.466;11.176;2023-03-14T01:38:39;10.60;99.90
4699;DHT22;33708;49.466;11.176;2023-03-14T01:41:06;10.60;99.90
4699;DHT22;33708;49.466;11.176;2023-03-14T01:43:32;10.60;99.90
4699;DHT22;33708;49.466;11.176;2023-03-14T01:48:36;10.80;99.90
4699;DHT22;33708;49.466;11.176;2023-03-14T01:51:07;11.00;99.90
4699;DHT22;33708;49.466;11.176;2023-03-14T01:53:35;11.00;99.90
4699;DHT22;33708;49.466;11.176;2023-03-14T01:56:01;11.10;99.90
4699;DHT22;33708;49.466;11.176;2023-03-14T01:58:30;11.00;99.90
4699;DHT22;33708;49.466;11.176;2023-03-14T02:00:59;11.00;99.90
4699;DHT22;33708;49.466;11.176;2023-03-14T02:03:27;10.90;99.90
4699;DHT22;33708;49.466;11.176;2023-03-14T02:05:56;10.80;99.90
4699;DHT22;33708;49.466;11.176;2023-03-14T02:08:26;11.00;99.90
4699;DHT22;33708;49.466;11.176;2023-03-14T02:10:53;11.00;99.90
4699;DHT22;33708;49.466;11.176;2023-03-14T02:13:20;11.10;99.90
4699;DHT22;33708;49.466;11.176;2023-03-14T02:15:47;11.10;99.90
4699;DHT22;33708;49.466;11.176;2023-03-14T02:18:13;11.10;99.90
4699;DHT22;33708;49.466;11.176;2023-03-14T02:20:56;11.10;99.90
4699;DHT22;33708;49.466;11.176;2023-03-14T02:23:34;11.00;99.90
4699;DHT22;33708;49.466;11.176;2023-03-14T02:26:14;11.10;99.90
4699;DHT22;33708;49.466;11.176;2023-03-14T02:28:41;11.00;99.90
4699;DHT22;33708;49.466;11.176;2023-03-14T02:31:07;11.00;99.90
4699;DHT22;33708;49.466;11.176;2023-03-14T02:33:35;11.00;99.90
4699;DHT22;33708;49.466;11.176;2023-03-14T02:36:05;11.00;99.90
4699;DHT22;33708;49.466;11.176;2023-03-14T02:38:40;11.00;99.90
4699;DHT22;33708;49.466;11.176;2023-03-14T02:41:07;11.10;99.90
4699;DHT22;33708;49.466;11.176;2023-03-14T02:43:33;11.20;99.90
4699;DHT22;33708;49.466;11.176;2023-03-14T02:45:59;11.20;99.90
4699;DHT22;33708;49.466;11.176;2023-03-14T02:48:29;11.10;99.90
4699;DHT22;33708;49.466;11.176;2023-03-14T02:50:59;11.10;99.90
4699;DHT22;33708;49.466;11.176;2023-03-14T02:53:27;11.00;99.90
4699;DHT22;33708;49.466;11.176;2023-03-14T02:55:54;11.00;99.90
4699;DHT22;33708;49.466;11.176;2023-03-14T02:58:20;11.10;99.90
4699;DHT22;33708;49.466;11.176;2023-03-14T03:00:46;11.40;99.90
4699;DHT22;33708;49.466;11.176;2023-03-14T03:03:11;11.00;99.90
4699;DHT22;33708;49.466;11.176;2023-03-14T03:05:38;11.00;99.90
4699;DHT22;33708;49.466;11.176;2023-03-14T03:08:04;10.80;99.90
4699;DHT22;33708;49.466;11.176;2023-03-14T03:10:29;10.90;99.90
4699;DHT22;33708;49.466;11.176;2023-03-14T03:12:55;10.80;99.90
4699;DHT22;33708;49.466;11.176;2023-03-14T03:15:21;10.90;99.90
4699;DHT22;33708;49.466;11.176;2023-03-14T03:17:47;10.80;99.90
4699;DHT22;33708;49.466;11.176;2023-03-14T03:20:13;11.00;99.90
4699;DHT22;33708;49.466;11.176;2023-03-14T03:22:39;11.10;99.90
4699;DHT22;33708;49.466;11.176;2023-03-14T03:25:06;11.40;99.90
4699;DHT22;33708;49.466;11.176;2023-03-14T03:27:33;11.30;99.90
4699;DHT22;33708;49.466;11.176;2023-03-14T03:29:59;11.50;99.90
4699;DHT22;33708;49.466;11.176;2023-03-14T03:32:25;11.40;99.90
4699;DHT22;33708;49.466;11.176;2023-03-14T03:34:51;11.50;99.90
4699;DHT22;33708;49.466;11.176;2023-03-14T03:37:16;11.20;99.90
4699;DHT22;33708;49.466;11.176;2023-03-14T03:39:42;11.40;99.90
4699;DHT22;33708;49.466;11.176;2023-03-14T03:42:07;11.40;99.90
4699;DHT22;33708;49.466;11.176;2023-03-14T03:44:33;10.70;99.90
4699;DHT22;33708;49.466;11.176;2023-03-14T03:46:59;11.30;99.90
4699;DHT22;33708;49.466;11.176;2023-03-14T03:49:28;11.30;99.90
4699;DHT22;33708;49.466;11.176;2023-03-14T03:51:54;11.10;99.90
4699;DHT22;33708;49.466;11.176;2023-03-14T03:54:20;11.40;99.90
4699;DHT22;33708;49.466;11.176;2023-03-14T03:56:45;10.90;99.90
4699;DHT22;33708;49.466;11.176;2023-03-14T03:59:11;10.90;99.90
4699;DHT22;33708;49.466;11.176;2023-03-14T04:01:37;11.00;99.90
4699;DHT22;33708;49.466;11.176;2023-03-14T04:04:02;11.20;99.90
4699;DHT22;33708;49.466;11.176;2023-03-14T04:06:28;11.00;99.90
4699;DHT22;33708;49.466;11.176;2023-03-14T04:08:54;10.70;99.90
4699;DHT22;33708;49.466;11.176;2023-03-14T04:11:19;10.80;99.90
4699;DHT22;33708;49.466;11.176;2023-03-14T04:13:45;10.60;99.90
4699;DHT22;33708;49.466;11.176;2023-03-14T04:16:19;10.20;1.00
4699;DHT22;33708;49.466;11.176;2023-03-14T04:18:45;9.90;99.90
4699;DHT22;33708;49.466;11.176;2023-03-14T04:21:11;9.60;1.00
4699;DHT22;33708;49.466;11.176;2023-03-14T04:23:36;9.50;99.90
4699;DHT22;33708;49.466;11.176;2023-03-14T04:26:02;9.30;1.00
4699;DHT22;33708;49.466;11.176;2023-03-14T04:28:28;9.20;99.90
4699;DHT22;33708;49.466;11.176;2023-03-14T04:30:54;9.20;99.90
4699;DHT22;33708;49.466;11.176;2023-03-14T04:33:19;9.30;99.90
4699;DHT22;33708;49.466;11.176;2023-03-14T04:35:45;9.20;1.00
4699;DHT22;33708;49.466;11.176;2023-03-14T04:38:11;9.20;99.90
4699;DHT22;33708;49.466;11.176;2023-03-14T04:40:41;9.10;32.90
4699;DHT22;33708;49.466;11.176;2023-03-14T04:43:08;9.10;1.00
4699;DHT22;33708;49.466;11.176;2023-03-14T04:45:35;8.90;99.90
4699;DHT22;33708;49.466;11.176;2023-03-14T04:48:01;8.90;99.90
4699;DHT22;33708;49.466;11.176;2023-03-14T04:50:26;8.90;99.90
4699;DHT22;33708;49.466;11.176;2023-03-14T04:52:52;8.90;99.90
4699;DHT22;33708;49.466;11.176;2023-03-14T04:55:18;8.80;64.30
4699;DHT22;33708;49.466;11.176;2023-03-14T04:57:43;8.80;1.00
4699;DHT22;33708;49.466;11.176;2023-03-14T05:00:10;8.80;1.00
4699;DHT22;33708;49.466;11.176;2023-03-14T05:02:36;8.80;1.00
4699;DHT22;33708;49.466;11.176;2023-03-14T05:05:01;8.80;1.00
4699;DHT22;33708;49.466;11.176;2023-03-14T05:07:27;8.80;1.00
4699;DHT22;33708;49.466;11.176;2023-03-14T05:09:52;8.70;1.00
4699;DHT22;33708;49.466;11.176;2023-03-14T05:12:19;8.60;1.00
4699;DHT22;33708;49.466;11.176;2023-03-14T05:14:45;8.60;1.00
4699;DHT22;33708;49.466;11.176;2023-03-14T05:17:11;8.60;1.00
4699;DHT22;33708;49.466;11.176;2023-03-14T05:19:40;8.60;1.00
4699;DHT22;33708;49.466;11.176;2023-03-14T05:22:06;8.60;99.90
4699;DHT22;33708;49.466;11.176;2023-03-14T05:24:31;8.60;99.90
4699;DHT22;33708;49.466;11.176;2023-03-14T05:26:57;8.60;99.90
4699;DHT22;33708;49.466;11.176;2023-03-14T05:29:23;8.60;99.90
4699;DHT22;33708;49.466;11.176;2023-03-14T05:31:48;8.60;99.90
4699;DHT22;33708;49.466;11.176;2023-03-14T05:34:14;8.60;99.90
4699;DHT22;33708;49.466;11.176;2023-03-14T05:36:39;8.60;99.90
4699;DHT22;33708;49.466;11.176;2023-03-14T05:39:05;8.50;99.90
4699;DHT22;33708;49.466;11.176;2023-03-14T05:41:30;8.50;99.90
4699;DHT22;33708;49.466;11.176;2023-03-14T05:43:56;8.60;99.90
4699;DHT22;33708;49.466;11.176;2023-03-14T05:46:22;8.50;99.90
4699;DHT22;33708;49.466;11.176;2023-03-14T05:48:47;8.60;99.90
4699;DHT22;33708;49.466;11.176;2023-03-14T05:51:13;8.50;99.90
4699;DHT22;33708;49.466;11.176;2023-03-14T05:53:38;8.50;99.90
4699;DHT22;33708;49.466;11.176;2023-03-14T05:56:04;8.40;99.90
4699;DHT22;33708;49.466;11.176;2023-03-14T05:58:30;8.40;99.90
4699;DHT22;33708;49.466;11.176;2023-03-14T06:00:55;8.40;99.90
4699;DHT22;33708;49.466;11.176;2023-03-14T06:03:21;8.60;99.90
4699;DHT22;33708;49.466;11.176;2023-03-14T06:05:49;8.40;99.90
4699;DHT22;33708;49.466;11.176;2023-03-14T06:08:15;8.50;99.90
4699;DHT22;33708;49.466;11.176;2023-03-14T06:10:41;8.50;99.90
4699;DHT22;33708;49.466;11.176;2023-03-14T06:13:07;8.50;99.90
4699;DHT22;33708;49.466;11.176;2023-03-14T06:15:32;8.50;99.90
4699;DHT22;33708;49.466;11.176;2023-03-14T06:17:58;8.60;99.90
4699;DHT22;33708;49.466;11.176;2023-03-14T06:20:23;8.50;99.90
4699;DHT22;33708;49.466;11.176;2023-03-14T06:22:49;8.60;99.90
4699;DHT22;33708;49.466;11.176;2023-03-14T06:25:15;8.60;99.90
4699;DHT22;33708;49.466;11.176;2023-03-14T06:27:41;8.70;99.90
4699;DHT22;33708;49.466;11.176;2023-03-14T06:30:07;8.70;99.90
4699;DHT22;33708;49.466;11.176;2023-03-14T06:32:33;8.70;99.90
4699;DHT22;33708;49.466;11.176;2023-03-14T06:34:58;8.70;99.90
4699;DHT22;33708;49.466;11.176;2023-03-14T06:37:27;8.80;99.90
4699;DHT22;33708;49.466;11.176;2023-03-14T06:39:53;8.90;99.90
4699;DHT22;33708;49.466;11.176;2023-03-14T06:42:19;8.90;99.90
4699;DHT22;33708;49.466;11.176;2023-03-14T06:44:44;10.10;99.90
4699;DHT22;33708;49.466;11.176;2023-03-14T06:47:10;9.00;99.90
4699;DHT22;33708;49.466;11.176;2023-03-14T06:49:36;9.00;99.90
4699;DHT22;33708;49.466;11.176;2023-03-14T06:52:01;9.10;99.90
4699;DHT22;33708;49.466;11.176;2023-03-14T06:54:27;9.10;99.90
4699;DHT22;33708;49.466;11.176;2023-03-14T06:56:53;9.20;99.90
4699;DHT22;33708;49.466;11.176;2023-03-14T06:59:18;9.20;99.90
4699;DHT22;33708;49.466;11.176;2023-03-14T07:01:44;9.30;99.90
4699;DHT22;33708;49.466;11.176;2023-03-14T07:04:10;9.40;99.90
4699;DHT22;33708;49.466;11.176;2023-03-14T07:06:35;9.50;99.90
4699;DHT22;33708;49.466;11.176;2023-03-14T07:09:02;9.40;99.90
4699;DHT22;33708;49.466;11.176;2023-03-14T07:11:27;9.60;99.90
4699;DHT22;33708;49.466;11.176;2023-03-14T07:13:53;9.50;99.90
4699;DHT22;33708;49.466;11.176;2023-03-14T07:16:19;9.60;99.90
4699;DHT22;33708;49.466;11.176;2023-03-14T07:18:45;9.70;99.90
4699;DHT22;33708;49.466;11.176;2023-03-14T07:21:11;9.80;99.90
4699;DHT22;33708;49.466;11.176;2023-03-14T07:23:37;9.80;99.90
4699;DHT22;33708;49.466;11.176;2023-03-14T07:26:03;9.90;99.90
4699;DHT22;33708;49.466;11.176;2023-03-14T07:28:30;9.90;99.90
4699;DHT22;33708;49.466;11.176;2023-03-14T07:30:55;9.90;99.90
4699;DHT22;33708;49.466;11.176;2023-03-14T07:33:21;9.90;99.90
4699;DHT22;33708;49.466;11.176;2023-03-14T07:35:48;10.00;99.90
4699;DHT22;33708;49.466;11.176;2023-03-14T07:38:14;10.00;99.90
4699;DHT22;33708;49.466;11.176;2023-03-14T07:40:40;10.10;99.90
4699;DHT22;33708;49.466;11.176;2023-03-14T07:43:06;10.10;99.90
4699;DHT22;33708;49.466;11.176;2023-03-14T07:45:32;10.00;99.90
4699;DHT22;33708;49.466;11.176;2023-03-14T07:47:57;10.00;99.90
4699;DHT22;33708;49.466;11.176;2023-03-14T07:50:24;10.20;99.90
4699;DHT22;33708;49.466;11.176;2023-03-14T07:52:50;10.30;99.90
4699;DHT22;33708;49.466;11.176;2023-03-14T07:55:16;10.20;99.90
4699;DHT22;33708;49.466;11.176;2023-03-14T07:57:41;10.10;99.90
4699;DHT22;33708;49.466;11.176;2023-03-14T08:00:08;10.20;99.90
4699;DHT22;33708;49.466;11.176;2023-03-14T08:02:34;10.20;99.90
4699;DHT22;33708;49.466;11.176;2023-03-14T08:05:00;10.40;99.90
4699;DHT22;33708;49.466;11.176;2023-03-14T08:07:26;10.40;99.90
4699;DHT22;33708;49.466;11.176;2023-03-14T08:09:51;10.60;99.90
4699;DHT22;33708;49.466;11.176;2023-03-14T08:12:17;11.10;99.90
4699;DHT22;33708;49.466;11.176;2023-03-14T08:14:42;11.40;99.90
4699;DHT22;33708;49.466;11.176;2023-03-14T08:17:08;11.70;99.90
4699;DHT22;33708;49.466;11.176;2023-03-14T08:19:34;12.10;99.90
4699;DHT22;33708;49.466;11.176;2023-03-14T08:22:00;13.00;99.90
4699;DHT22;33708;49.466;11.176;2023-03-14T08:24:25;13.10;99.90
4699;DHT22;33708;49.466;11.176;2023-03-14T08:26:51;12.80;99.90
4699;DHT22;33708;49.466;11.176;2023-03-14T08:29:16;12.70;99.90
4699;DHT22;33708;49.466;11.176;2023-03-14T08:31:42;12.60;99.90
4699;DHT22;33708;49.466;11.176;2023-03-14T08:34:08;12.80;99.90
4699;DHT22;33708;49.466;11.176;2023-03-14T08:36:34;13.30;99.90
4699;DHT22;33708;49.466;11.176;2023-03-14T08:38:59;13.70;99.90
4699;DHT22;33708;49.466;11.176;2023-03-14T08:41:25;13.70;99.90
4699;DHT22;33708;49.466;11.176;2023-03-14T08:43:51;13.40;99.90
4699;DHT22;33708;49.466;11.176;2023-03-14T08:46:16;13.70;99.90
4699;DHT22;33708;49.466;11.176;2023-03-14T08:48:42;13.70;99.90
4699;DHT22;33708;49.466;11.176;2023-03-14T08:51:09;13.80;99.90
4699;DHT22;33708;49.466;11.176;2023-03-14T08:53:36;14.40;99.90
4699;DHT22;33708;49.466;11.176;2023-03-14T08:56:02;14.20;99.90
4699;DHT22;33708;49.466;11.176;2023-03-14T08:58:29;14.40;99.90
4699;DHT22;33708;49.466;11.176;2023-03-14T09:00:55;14.50;99.90
4699;DHT22;33708;49.466;11.176;2023-03-14T09:03:20;14.60;99.90
4699;DHT22;33708;49.466;11.176;2023-03-14T09:05:49;14.50;99.90
4699;DHT22;33708;49.466;11.176;2023-03-14T09:08:14;14.20;99.90
4699;DHT22;33708;49.466;11.176;2023-03-14T09:10:40;14.20;99.90
4699;DHT22;33708;49.466;11.176;2023-03-14T09:13:05;14.40;99.90
4699;DHT22;33708;49.466;11.176;2023-03-14T09:15:32;14.40;99.90
4699;DHT22;33708;49.466;11.176;2023-03-14T09:17:58;14.60;99.90
4699;DHT22;33708;49.466;11.176;2023-03-14T09:20:23;14.10;99.90
4699;DHT22;33708;49.466;11.176;2023-03-14T09:22:49;15.00;99.90
4699;DHT22;33708;49.466;11.176;2023-03-14T09:25:15;14.60;99.90
4699;DHT22;33708;49.466;11.176;2023-03-14T09:27:41;15.30;99.90
4699;DHT22;33708;49.466;11.176;2023-03-14T09:30:07;16.50;99.90
4699;DHT22;33708;49.466;11.176;2023-03-14T09:32:33;16.30;98.50
4699;DHT22;33708;49.466;11.176;2023-03-14T09:34:58;17.90;99.90
4699;DHT22;33708;49.466;11.176;2023-03-14T09:37:24;17.80;88.30
4699;DHT22;33708;49.466;11.176;2023-03-14T09:39:50;17.20;79.10
4699;DHT22;33708;49.466;11.176;2023-03-14T09:42:22;17.40;79.30
4699;DHT22;33708;49.466;11.176;2023-03-14T09:45:02;16.90;71.30
4699;DHT22;33708;49.466;11.176;2023-03-14T09:47:31;16.30;71.10
4699;DHT22;33708;49.466;11.176;2023-03-14T09:49:59;16.20;71.90
4699;DHT22;33708;49.466;11.176;2023-03-14T09:52:32;16.20;71.40
4699;DHT22;33708;49.466;11.176;2023-03-14T09:55:03;15.70;65.20
4699;DHT22;33708;49.466;11.176;2023-03-14T09:57:33;15.20;65.50
4699;DHT22;33708;49.466;11.176;2023-03-14T10:00:05;14.50;61.00
4699;DHT22;33708;49.466;11.176;2023-03-14T10:02:40;14.40;59.60
4699;DHT22;33708;49.466;11.176;2023-03-14T10:05:18;14.20;64.10
4699;DHT22;33708;49.466;11.176;2023-03-14T10:07:45;14.50;64.90
4699;DHT22;33708;49.466;11.176;2023-03-14T10:10:22;14.40;64.80
4699;DHT22;33708;49.466;11.176;2023-03-14T10:12:56;14.50;65.70
4699;DHT22;33708;49.466;11.176;2023-03-14T10:15:32;14.80;65.50
4699;DHT22;33708;49.466;11.176;2023-03-14T10:18:00;14.30;62.10
4699;DHT22;33708;49.466;11.176;2023-03-14T10:20:38;14.10;60.20
4699;DHT22;33708;49.466;11.176;2023-03-14T10:25:39;14.00;61.70
4699;DHT22;33708;49.466;11.176;2023-03-14T10:28:10;14.10;60.20
4699;DHT22;33708;49.466;11.176;2023-03-14T10:30:44;14.50;60.00
4699;DHT22;33708;49.466;11.176;2023-03-14T10:33:32;14.90;61.30
4699;DHT22;33708;49.466;11.176;2023-03-14T10:36:14;15.10;58.80
4699;DHT22;33708;49.466;11.176;2023-03-14T10:38:42;15.10;58.40
4699;DHT22;33708;49.466;11.176;2023-03-14T10:41:26;14.60;56.80
4699;DHT22;33708;49.466;11.176;2023-03-14T10:43:55;14.90;58.50
4699;DHT22;33708;49.466;11.176;2023-03-14T10:46:24;14.70;56.60
4699;DHT22;33708;49.466;11.176;2023-03-14T10:48:51;14.80;55.70
4699;DHT22;33708;49.466;11.176;2023-03-14T10:51:28;14.60;53.20
4699;DHT22;33708;49.466;11.176;2023-03-14T10:54:03;14.60;51.20
4699;DHT22;33708;49.466;11.176;2023-03-14T10:56:36;14.30;49.40
4699;DHT22;33708;49.466;11.176;2023-03-14T10:59:03;14.20;50.20
4699;DHT22;33708;49.466;11.176;2023-03-14T11:23:52;13.20;55.70
4699;DHT22;33708;49.466;11.176;2023-03-14T11:26:37;13.00;58.90
4699;DHT22;33708;49.466;11.176;2023-03-14T11:32:38;13.20;70.10
4699;DHT22;33708;49.466;11.176;2023-03-14T11:35:28;13.10;71.50
4699;DHT22;33708;49.466;11.176;2023-03-14T11:38:43;13.00;73.00
4699;DHT22;33708;49.466;11.176;2023-03-14T11:40:41;12.60;82.50
4699;DHT22;33708;49.466;11.176;2023-03-14T11:43:20;13.00;92.80
4699;DHT22;33708;49.466;11.176;2023-03-14T11:45:47;13.60;95.60
4699;DHT22;33708;49.466;11.176;2023-03-14T11:48:32;14.20;96.20
4699;DHT22;33708;49.466;11.176;2023-03-14T11:51:04;14.40;95.40
4699;DHT22;33708;49.466;11.176;2023-03-14T11:54:08;14.30;95.70
4699;DHT22;33708;49.466;11.176;2023-03-14T11:57:03;14.70;97.70
4699;DHT22;33708;49.466;11.176;2023-03-14T12:10:49;15.00;88.80
4699;DHT22;33708;49.466;11.176;2023-03-14T12:13:17;14.90;88.30
4699;DHT22;33708;49.466;11.176;2023-03-14T12:15:58;15.00;85.50
4699;DHT22;33708;49.466;11.176;2023-03-14T12:18:38;15.10;81.50
4699;DHT22;33708;49.466;11.176;2023-03-14T12:21:06;15.80;84.50
4699;DHT22;33708;49.466;11.176;2023-03-14T12:23:54;15.60;77.70
4699;DHT22;33708;49.466;11.176;2023-03-14T12:26:23;16.70;77.90
4699;DHT22;33708;49.466;11.176;2023-03-14T12:44:46;14.80;46.70
4699;DHT22;33708;49.466;11.176;2023-03-14T12:49:45;15.90;46.90
4699;DHT22;33708;49.466;11.176;2023-03-14T12:52:47;16.50;48.70
4699;DHT22;33708;49.466;11.176;2023-03-14T12:55:24;16.10;39.90
4699;DHT22;33708;49.466;11.176;2023-03-14T13:00:33;15.70;37.70
4699;DHT22;33708;49.466;11.176;2023-03-14T13:03:20;15.20;35.10
4699;DHT22;33708;49.466;11.176;2023-03-14T13:05:59;15.00;33.80
4699;DHT22;33708;49.466;11.176;2023-03-14T13:08:51;14.60;32.10
4699;DHT22;33708;49.466;11.176;2023-03-14T13:11:22;14.10;42.60
4699;DHT22;33708;49.466;11.176;2023-03-14T13:13:58;13.70;43.40
4699;DHT22;33708;49.466;11.176;2023-03-14T13:16:24;13.50;49.60
4699;DHT22;33708;49.466;11.176;2023-03-14T13:19:11;13.10;52.40
4699;DHT22;33708;49.466;11.176;2023-03-14T13:21:39;12.80;56.00
4699;DHT22;33708;49.466;11.176;2023-03-14T13:24:25;12.40;57.50
4699;DHT22;33708;49.466;11.176;2023-03-14T13:26:55;12.30;59.10
4699;DHT22;33708;49.466;11.176;2023-03-14T13:29:32;12.30;57.60
4699;DHT22;33708;49.466;11.176;2023-03-14T13:32:00;12.20;59.70
4699;DHT22;33708;49.466;11.176;2023-03-14T13:34:29;12.10;64.00
4699;DHT22;33708;49.466;11.176;2023-03-14T13:36:55;11.60;74.70
4699;DHT22;33708;49.466;11.176;2023-03-14T13:39:24;11.80;82.70
4699;DHT22;33708;49.466;11.176;2023-03-14T13:42:00;11.60;83.70
4699;DHT22;33708;49.466;11.176;2023-03-14T13:46:52;11.60;99.90
4699;DHT22;33708;49.466;11.176;2023-03-14T13:49:24;11.60;93.50
4699;DHT22;33708;49.466;11.176;2023-03-14T13:51:50;11.50;94.00
4699;DHT22;33708;49.466;11.176;2023-03-14T13:54:18;11.30;95.00
4699;DHT22;33708;49.466;11.176;2023-03-14T13:56:45;11.20;93.90
4699;DHT22;33708;49.466;11.176;2023-03-14T13:59:27;11.40;96.90
4699;DHT22;33708;49.466;11.176;2023-03-14T14:01:54;11.40;97.30
4699;DHT22;33708;49.466;11.176;2023-03-14T14:04:23;11.10;96.10
4699;DHT22;33708;49.466;11.176;2023-03-14T14:07:00;11.10;99.50
4699;DHT22;33708;49.466;11.176;2023-03-14T14:09:31;11.00;99.90
4699;DHT22;33708;49.466;11.176;2023-03-14T14:12:17;10.70;99.90
4699;DHT22;33708;49.466;11.176;2023-03-14T14:14:53;10.90;99.90
4699;DHT22;33708;49.466;11.176;2023-03-14T14:17:26;11.00;99.90
4699;DHT22;33708;49.466;11.176;2023-03-14T14:19:54;11.00;99.90
4699;DHT22;33708;49.466;11.176;2023-03-14T14:22:22;11.00;99.90
4699;DHT22;33708;49.466;11.176;2023-03-14T14:24:48;10.80;99.90
4699;DHT22;33708;49.466;11.176;2023-03-14T14:27:16;10.80;99.90
4699;DHT22;33708;49.466;11.176;2023-03-14T14:29:43;10.80;99.90
4699;DHT22;33708;49.466;11.176;2023-03-14T14:34:57;10.90;99.90
4699;DHT22;33708;49.466;11.176;2023-03-14T14:37:28;10.90;99.90
4699;DHT22;33708;49.466;11.176;2023-03-14T14:39:57;10.80;99.90
4699;DHT22;33708;49.466;11.176;2023-03-14T14:42:27;10.70;99.90
4699;DHT22;33708;49.466;11.176;2023-03-14T14:44:53;10.60;99.90
4699;DHT22;33708;49.466;11.176;2023-03-14T14:47:22;10.20;99.90
4699;DHT22;33708;49.466;11.176;2023-03-14T14:49:49;10.20;99.90
4699;DHT22;33708;49.466;11.176;2023-03-14T14:52:41;10.10;99.90
4699;DHT22;33708;49.466;11.176;2023-03-14T14:55:14;10.20;99.90
4699;DHT22;33708;49.466;11.176;2023-03-14T14:57:52;10.00;99.90
4699;DHT22;33708;49.466;11.176;2023-03-14T15:00:20;9.70;99.90
4699;DHT22;33708;49.466;11.176;2023-03-14T15:02:50;9.50;99.90
4699;DHT22;33708;49.466;11.176;2023-03-14T15:05:22;9.30;99.90
4699;DHT22;33708;49.466;11.176;2023-03-14T15:07:48;9.40;99.90
4699;DHT22;33708;49.466;11.176;2023-03-14T15:10:19;9.20;99.90
4699;DHT22;33708;49.466;11.176;2023-03-14T15:12:45;8.90;99.90
4699;DHT22;33708;49.466;11.176;2023-03-14T15:15:13;9.10;99.90
4699;DHT22;33708;49.466;11.176;2023-03-14T15:17:39;8.60;18.20
4699;DHT22;33708;49.466;11.176;2023-03-14T15:20:06;8.50;15.20
4699;DHT22;33708;49.466;11.176;2023-03-14T15:22:32;8.30;1.00
4699;DHT22;33708;49.466;11.176;2023-03-14T15:24:57;8.40;1.00
4699;DHT22;33708;49.466;11.176;2023-03-14T15:27:23;8.10;1.00
4699;DHT22;33708;49.466;11.176;2023-03-14T15:29:49;8.10;99.90
4699;DHT22;33708;49.466;11.176;2023-03-14T15:32:16;7.90;99.90
4699;DHT22;33708;49.466;11.176;2023-03-14T15:34:43;7.90;99.90
4699;DHT22;33708;49.466;11.176;2023-03-14T15:37:14;8.00;99.90
4699;DHT22;33708;49.466;11.176;2023-03-14T15:39:44;8.10;99.90
4699;DHT22;33708;49.466;11.176;2023-03-14T15:42:10;8.20;99.90
4699;DHT22;33708;49.466;11.176;2023-03-14T15:44:37;8.20;99.90
4699;DHT22;33708;49.466;11.176;2023-03-14T15:47:03;8.20;99.90
4699;DHT22;33708;49.466;11.176;2023-03-14T15:49:29;8.30;99.90
4699;DHT22;33708;49.466;11.176;2023-03-14T15:51:54;8.40;99.90
4699;DHT22;33708;49.466;11.176;2023-03-14T15:54:20;8.50;99.90
4699;DHT22;33708;49.466;11.176;2023-03-14T15:56:45;8.50;99.90
4699;DHT22;33708;49.466;11.176;2023-03-14T15:59:11;8.40;99.90
4699;DHT22;33708;49.466;11.176;2023-03-14T16:01:37;8.20;99.90
4699;DHT22;33708;49.466;11.176;2023-03-14T16:04:03;8.30;99.90
4699;DHT22;33708;49.466;11.176;2023-03-14T16:06:29;8.50;99.90
4699;DHT22;33708;49.466;11.176;2023-03-14T16:08:56;8.60;99.90
4699;DHT22;33708;49.466;11.176;2023-03-14T16:11:22;8.60;99.90
4699;DHT22;33708;49.466;11.176;2023-03-14T16:13:47;8.50;99.90
4699;DHT22;33708;49.466;11.176;2023-03-14T16:16:13;8.60;99.90
4699;DHT22;33708;49.466;11.176;2023-03-14T16:18:39;8.60;99.90
4699;DHT22;33708;49.466;11.176;2023-03-14T16:21:12;8.60;99.90
4699;DHT22;33708;49.466;11.176;2023-03-14T16:23:38;8.60;98.60
4699;DHT22;33708;49.466;11.176;2023-03-14T16:26:06;8.50;93.40
4699;DHT22;33708;49.466;11.176;2023-03-14T16:28:32;8.40;91.00
4699;DHT22;33708;49.466;11.176;2023-03-14T16:31:03;8.40;89.30
4699;DHT22;33708;49.466;11.176;2023-03-14T16:33:29;8.30;81.00
4699;DHT22;33708;49.466;11.176;2023-03-14T16:35:57;8.30;77.80
4699;DHT22;33708;49.466;11.176;2023-03-14T16:38:23;8.40;75.80
4699;DHT22;33708;49.466;11.176;2023-03-14T16:40:59;8.30;70.90
4699;DHT22;33708;49.466;11.176;2023-03-14T16:43:26;8.20;64.30
4699;DHT22;33708;49.466;11.176;2023-03-14T16:45:52;8.30;61.60
4699;DHT22;33708;49.466;11.176;2023-03-14T16:48:18;8.20;62.80
4699;DHT22;33708;49.466;11.176;2023-03-14T16:50:43;8.10;59.70
4699;DHT22;33708;49.466;11.176;2023-03-14T16:53:09;8.10;57.90